createdAt,value
2022-08-22T00:02:23.747Z,1.50
2022-08-22T00:03:07.041Z,1.45
2022-08-22T00:03:12.457Z,1.13
2022-08-22T00:05:08.753Z,1.40
2022-08-22T00:08:18.889Z,1.50
2022-08-22T00:10:59.528Z,1.17
2022-08-22T00:13:52.683Z,1.30
2022-08-22T00:16:46.591Z,1.10
2022-08-22T00:19:31.553Z,1.20
2022-08-22T00:22:26.875Z,0.90
2022-08-22T00:25:37.261Z,1.17
2022-08-22T00:28:09.907Z,0.95
2022-08-22T00:30:56.373Z,0.70
2022-08-22T00:33:34.476Z,0.70
2022-08-22T00:36:24.407Z,0.50
2022-08-22T00:39:07.842Z,0.40
2022-08-22T00:42:08.183Z,0.45
2022-08-22T00:44:54.456Z,0.30
2022-08-22T00:47:43.353Z,0.20
2022-08-22T00:50:25.808Z,0.40
2022-08-22T00:53:11.429Z,0.50
2022-08-22T00:56:03.864Z,0.40
2022-08-22T00:58:45.715Z,0.30
2022-08-22T01:01:15.502Z,0.30
2022-08-22T01:03:46.727Z,0.40
2022-08-22T01:06:39.834Z,0.57
2022-08-22T01:09:38.014Z,0.50
2022-08-22T01:12:11.918Z,0.30
2022-08-22T01:14:57.801Z,0.50
2022-08-22T01:17:33.766Z,0.40
2022-08-22T01:20:21.783Z,0.40
2022-08-22T01:23:08.947Z,0.50
2022-08-22T01:26:13.141Z,0.40
2022-08-22T01:29:13.666Z,0.50
2022-08-22T01:32:01.188Z,0.40
2022-08-22T01:34:40.004Z,0.50
2022-08-22T01:37:25.355Z,0.55
2022-08-22T01:40:16.950Z,0.50
2022-08-22T01:42:46.832Z,0.30
2022-08-22T01:47:50.568Z,0.38
2022-08-22T01:50:36.806Z,0.30
2022-08-22T01:53:24.100Z,0.35
2022-08-22T01:56:08.532Z,0.30
2022-08-22T01:58:37.746Z,0.40
2022-08-22T02:01:16.996Z,0.32
2022-08-22T02:03:55.533Z,0.50
2022-08-22T02:06:44.766Z,0.30
2022-08-22T02:09:23.412Z,0.50
2022-08-22T02:11:57.954Z,0.50
2022-08-22T02:14:27.875Z,0.60
2022-08-22T02:17:07.483Z,0.60
2022-08-22T02:19:40.106Z,0.80
2022-08-22T02:22:27.005Z,0.82
2022-08-22T02:25:09.061Z,0.77
2022-08-22T02:27:55.183Z,0.60
2022-08-22T02:30:30.567Z,0.60
2022-08-22T02:33:10.936Z,0.70
2022-08-22T02:35:48.387Z,0.70
2022-08-22T02:38:25.593Z,0.63
2022-08-22T02:41:23.279Z,0.60
2022-08-22T02:43:56.221Z,0.63
2022-08-22T02:46:49.605Z,0.70
2022-08-22T02:49:30.849Z,0.65
2022-08-22T02:52:09.926Z,0.65
2022-08-22T02:54:45.308Z,0.73
2022-08-22T02:57:20.225Z,0.60
2022-08-22T03:00:30.654Z,0.85
2022-08-22T03:03:14.503Z,0.85
2022-08-22T03:05:41.612Z,0.70
2022-08-22T03:08:13.800Z,0.60
2022-08-22T03:10:47.378Z,0.65
2022-08-22T03:13:24.733Z,0.68
2022-08-22T03:16:09.352Z,0.70
2022-08-22T03:19:18.765Z,0.70
2022-08-22T03:24:29.575Z,0.40
2022-08-22T03:27:32.270Z,0.40
2022-08-22T03:30:21.688Z,0.40
2022-08-22T03:32:59.505Z,0.50
2022-08-22T03:35:39.286Z,0.47
2022-08-22T03:40:56.493Z,0.32
2022-08-22T03:43:54.180Z,0.30
2022-08-22T03:47:08.419Z,0.40
2022-08-22T03:49:59.534Z,0.40
2022-08-22T03:53:10.271Z,0.47
2022-08-22T03:56:13.901Z,0.45
2022-08-22T03:59:31.599Z,0.60
2022-08-22T04:02:24.736Z,0.40
2022-08-22T04:05:29.672Z,0.40
2022-08-22T04:08:15.088Z,0.43
2022-08-22T04:11:03.708Z,0.50
2022-08-22T04:14:07.781Z,0.50
2022-08-22T04:16:43.607Z,0.40
2022-08-22T04:19:14.010Z,0.52
2022-08-22T04:24:24.344Z,0.60
2022-08-22T04:27:19.592Z,0.63
2022-08-22T04:29:59.782Z,0.70
2022-08-22T04:32:41.602Z,0.70
2022-08-22T04:35:11.293Z,0.60
2022-08-22T04:38:02.701Z,0.68
2022-08-22T04:40:38.694Z,0.70
2022-08-22T04:43:15.405Z,0.70
2022-08-22T04:45:54.207Z,0.50
2022-08-22T04:48:47.967Z,0.60
2022-08-22T04:51:33.582Z,0.68
2022-08-22T04:54:53.146Z,0.60
2022-08-22T04:57:23.299Z,0.75
2022-08-22T04:59:51.166Z,0.50
2022-08-22T05:02:28.019Z,0.80
2022-08-22T05:05:13.111Z,0.75
2022-08-22T05:07:46.810Z,0.60
2022-08-22T05:10:19.274Z,0.70
2022-08-22T05:12:54.267Z,0.60
2022-08-22T05:15:33.112Z,0.70
2022-08-22T05:18:06.579Z,0.93
2022-08-22T05:20:36.370Z,0.70
2022-08-22T05:23:17.203Z,0.70
2022-08-22T05:25:48.484Z,0.70
2022-08-22T05:28:39.305Z,0.52
2022-08-22T05:31:11.833Z,0.60
2022-08-22T05:33:43.859Z,0.63
2022-08-22T05:36:19.576Z,0.98
2022-08-22T05:39:12.821Z,0.75
2022-08-22T05:41:41.367Z,0.73
2022-08-22T05:44:36.565Z,0.60
2022-08-22T05:47:06.236Z,1.20
2022-08-22T05:49:42.192Z,0.88
2022-08-22T05:52:33.141Z,0.65
2022-08-22T05:55:15.737Z,0.80
2022-08-22T05:57:50.280Z,0.70
2022-08-22T06:00:22.186Z,0.90
2022-08-22T06:03:10.894Z,0.80
2022-08-22T06:05:42.705Z,0.80
2022-08-22T06:08:32.229Z,0.88
2022-08-22T06:11:06.771Z,0.68
2022-08-22T06:13:47.257Z,0.82
2022-08-22T06:16:33.689Z,0.85
2022-08-22T06:19:03.132Z,1.27
2022-08-22T06:21:39.403Z,0.80
2022-08-22T06:24:09.938Z,0.75
2022-08-22T06:26:46.093Z,0.90
2022-08-22T06:29:40.147Z,0.90
2022-08-22T06:32:59.387Z,0.60
2022-08-22T06:36:00.154Z,0.70
2022-08-22T06:41:06.814Z,0.82
2022-08-22T06:43:44.172Z,0.90
2022-08-22T06:46:14.436Z,0.80
2022-08-22T06:48:41.544Z,0.70
2022-08-22T06:51:08.916Z,0.80
2022-08-22T06:53:48.141Z,0.80
2022-08-22T06:56:30.428Z,1.00
2022-08-22T06:59:02.815Z,0.75
2022-08-22T07:01:44.059Z,0.82
2022-08-22T07:04:11.663Z,0.70
2022-08-22T07:06:42.582Z,0.70
2022-08-22T07:09:20.873Z,0.77
2022-08-22T07:11:48.547Z,0.77
2022-08-22T07:14:18.119Z,0.82
2022-08-22T07:16:50.511Z,0.65
2022-08-22T07:19:39.572Z,0.70
2022-08-22T07:22:14.119Z,0.50
2022-08-22T07:24:47.503Z,0.70
2022-08-22T07:27:27.791Z,0.80
2022-08-22T07:30:10.189Z,0.70
2022-08-22T07:33:23.643Z,0.73
2022-08-22T07:35:56.147Z,0.82
2022-08-22T07:38:45.164Z,0.68
2022-08-22T07:41:28.690Z,0.70
2022-08-22T07:44:16.209Z,0.65
2022-08-22T07:46:57.355Z,0.90
2022-08-22T07:49:30.494Z,0.80
2022-08-22T07:52:10.951Z,0.70
2022-08-22T07:54:48.335Z,0.80
2022-08-22T07:57:25.712Z,0.52
2022-08-22T07:59:55.715Z,0.68
2022-08-22T08:02:24.626Z,1.15
2022-08-22T08:04:55.144Z,0.80
2022-08-22T08:07:25.401Z,0.60
2022-08-22T08:10:09.925Z,0.68
2022-08-22T08:12:58.013Z,0.60
2022-08-22T08:15:31.923Z,0.55
2022-08-22T08:20:30.418Z,0.60
2022-08-22T08:22:59.370Z,0.43
2022-08-22T08:25:29.333Z,0.50
2022-08-22T08:28:18.172Z,0.40
2022-08-22T08:31:07.487Z,0.33
2022-08-22T08:33:39.695Z,0.43
2022-08-22T08:36:27.909Z,0.50
2022-08-22T08:39:14.082Z,0.25
2022-08-22T08:41:40.947Z,0.28
2022-08-22T08:44:22.668Z,0.30
2022-08-22T08:47:11.616Z,0.40
2022-08-22T08:49:56.201Z,0.30
2022-08-22T08:52:52.789Z,0.38
2022-08-22T08:55:44.554Z,0.20
2022-08-22T08:58:30.293Z,0.35
2022-08-22T09:01:16.818Z,0.30
2022-08-22T09:03:58.617Z,0.40
2022-08-22T09:06:43.304Z,0.40
2022-08-22T09:09:38.365Z,0.40
2022-08-22T09:12:20.843Z,0.30
2022-08-22T09:14:57.446Z,0.40
2022-08-22T09:17:51.836Z,0.40
2022-08-22T09:20:25.391Z,0.40
2022-08-22T09:23:16.949Z,0.30
2022-08-22T09:25:57.538Z,0.20
2022-08-22T09:28:40.089Z,0.40
2022-08-22T09:31:33.077Z,0.30
2022-08-22T09:34:24.041Z,0.53
2022-08-22T09:36:55.316Z,0.32
2022-08-22T09:39:49.500Z,0.40
2022-08-22T09:42:39.848Z,0.35
2022-08-22T09:45:11.852Z,0.30
2022-08-22T09:48:08.271Z,0.50
2022-08-22T09:50:54.687Z,0.40
2022-08-22T09:53:50.130Z,0.47
2022-08-22T09:56:26.484Z,0.40
2022-08-22T09:59:12.218Z,0.50
2022-08-22T10:01:44.628Z,0.30
2022-08-22T10:06:54.737Z,0.50
2022-08-22T10:09:31.350Z,0.30
2022-08-22T10:12:19.463Z,0.40
2022-08-22T10:15:15.283Z,0.50
2022-08-22T10:17:59.738Z,0.40
2022-08-22T10:20:36.896Z,0.35
2022-08-22T10:23:21.484Z,0.50
2022-08-22T10:25:50.063Z,0.50
2022-08-22T10:28:43.080Z,0.60
2022-08-22T10:31:34.862Z,0.40
2022-08-22T10:34:27.611Z,0.60
2022-08-22T10:37:24.104Z,0.50
2022-08-22T10:40:15.931Z,0.60
2022-08-22T10:43:12.895Z,0.70
2022-08-22T10:45:43.941Z,0.50
2022-08-22T10:48:10.629Z,0.60
2022-08-22T10:50:48.983Z,0.82
2022-08-22T10:53:34.628Z,0.70
2022-08-22T10:56:09.741Z,0.65
2022-08-22T10:58:56.023Z,0.57
2022-08-22T11:01:37.630Z,0.80
2022-08-22T11:04:28.299Z,0.80
2022-08-22T11:07:17.493Z,0.80
2022-08-22T11:09:57.048Z,0.85
2022-08-22T11:12:41.742Z,0.98
2022-08-22T11:15:40.668Z,0.88
2022-08-22T11:18:42.835Z,0.90
2022-08-22T11:21:59.970Z,0.85
2022-08-22T11:24:30.123Z,1.00
2022-08-22T11:27:34.444Z,1.02
2022-08-22T11:30:14.479Z,0.73
2022-08-22T11:33:17.833Z,0.75
2022-08-22T11:35:56.015Z,0.82
2022-08-22T11:38:32.590Z,0.90
2022-08-22T11:41:09.528Z,1.02
2022-08-22T11:43:51.567Z,0.80
2022-08-22T11:46:39.529Z,0.90
2022-08-22T11:49:34.193Z,1.02
2022-08-22T11:52:06.952Z,1.00
2022-08-22T11:54:54.402Z,1.10
2022-08-22T11:57:32.932Z,1.02
2022-08-22T12:00:03.269Z,1.02
2022-08-22T12:03:02.680Z,1.08
2022-08-22T12:05:51.956Z,0.70
2022-08-22T12:08:43.518Z,1.10
2022-08-22T12:11:19.886Z,1.20
2022-08-22T12:14:04.027Z,1.20
2022-08-22T12:16:36.008Z,1.00
2022-08-22T12:21:53.998Z,1.30
2022-08-22T12:24:51.802Z,1.13
2022-08-22T12:27:28.470Z,1.40
2022-08-22T12:30:33.440Z,1.27
2022-08-22T12:33:24.915Z,1.30
2022-08-22T12:36:03.129Z,1.30
2022-08-22T12:38:52.838Z,1.10
2022-08-22T12:41:38.480Z,1.40
2022-08-22T12:44:23.415Z,1.35
2022-08-22T12:47:19.089Z,1.50
2022-08-22T12:50:19.861Z,1.20
2022-08-22T12:53:27.515Z,1.08
2022-08-22T12:56:16.093Z,1.05
2022-08-22T12:59:17.819Z,1.10
2022-08-22T13:01:50.504Z,0.77
2022-08-22T13:04:32.611Z,1.00
2022-08-22T13:07:23.254Z,1.02
2022-08-22T13:10:22.182Z,0.88
2022-08-22T13:12:54.145Z,0.80
2022-08-22T13:15:24.532Z,0.73
2022-08-22T13:17:52.578Z,0.63
2022-08-22T13:20:28.646Z,1.00
2022-08-22T13:22:56.578Z,0.93
2022-08-22T13:25:29.950Z,0.88
2022-08-22T13:28:01.086Z,1.30
2022-08-22T13:30:30.951Z,1.13
2022-08-22T13:33:10.256Z,1.55
2022-08-22T13:35:54.083Z,1.40
2022-08-22T13:38:30.557Z,1.77
2022-08-22T13:40:59.273Z,1.10
2022-08-22T13:43:31.085Z,1.30
2022-08-22T13:46:02.432Z,1.40
2022-08-22T13:48:49.845Z,1.55
2022-08-22T13:52:00.412Z,1.30
2022-08-22T13:54:40.649Z,1.35
2022-08-22T13:57:27.151Z,1.08
2022-08-22T14:00:06.497Z,1.30
2022-08-22T14:02:39.114Z,1.40
2022-08-22T14:05:17.409Z,0.98
2022-08-22T14:07:53.007Z,0.88
2022-08-22T14:10:29.847Z,1.05
2022-08-22T14:12:56.574Z,0.90
2022-08-22T14:15:32.343Z,0.90
2022-08-22T14:18:20.722Z,0.60
2022-08-22T14:21:27.785Z,1.33
2022-08-22T14:24:00.234Z,0.93
2022-08-22T14:26:32.831Z,0.80
2022-08-22T14:29:11.593Z,0.80
2022-08-22T14:31:38.399Z,0.90
2022-08-22T14:34:10.624Z,0.95
2022-08-22T14:36:57.570Z,1.02
2022-08-22T14:39:42.952Z,1.00
2022-08-22T14:42:19.698Z,0.80
2022-08-22T14:44:58.393Z,0.60
2022-08-22T14:47:54.258Z,0.50
2022-08-22T14:50:33.697Z,0.57
2022-08-22T14:53:26.062Z,0.65
2022-08-22T14:56:22.449Z,0.40
2022-08-22T14:59:01.411Z,0.60
2022-08-22T15:01:32.754Z,0.37
2022-08-22T15:04:34.997Z,0.60
2022-08-22T15:07:04.914Z,0.40
2022-08-22T15:09:41.527Z,0.32
2022-08-22T15:12:46.562Z,0.50
2022-08-22T15:15:27.701Z,0.38
2022-08-22T15:17:55.106Z,0.40
2022-08-22T15:20:27.942Z,0.70
2022-08-22T15:23:00.776Z,0.40
2022-08-22T15:25:33.404Z,0.40
2022-08-22T15:28:14.200Z,0.40
2022-08-22T15:31:03.785Z,0.40
2022-08-22T15:33:40.170Z,0.22
2022-08-22T15:36:18.796Z,0.35
2022-08-22T15:38:48.142Z,0.50
2022-08-22T15:41:37.005Z,0.43
2022-08-22T15:44:32.283Z,0.23
2022-08-22T15:47:24.264Z,0.38
2022-08-22T15:50:00.595Z,0.40
2022-08-22T15:52:31.710Z,0.30
2022-08-22T15:55:20.398Z,0.30
2022-08-22T15:58:07.949Z,0.40
2022-08-22T16:01:02.874Z,0.30
2022-08-22T16:03:33.140Z,0.30
2022-08-22T16:06:07.469Z,0.20
2022-08-22T16:08:37.331Z,0.70
2022-08-22T16:11:03.995Z,0.40
2022-08-22T16:13:30.680Z,0.20
2022-08-22T16:16:00.253Z,0.30
2022-08-22T16:18:45.120Z,0.30
2022-08-22T16:21:14.776Z,0.40
2022-08-22T16:23:56.913Z,0.40
2022-08-22T16:26:31.630Z,0.50
2022-08-22T16:29:35.552Z,0.25
2022-08-22T16:32:10.787Z,0.30
2022-08-22T16:34:37.435Z,0.50
2022-08-22T16:37:18.006Z,0.40
2022-08-22T16:39:50.801Z,0.40
2022-08-22T16:42:23.413Z,0.35
2022-08-22T16:45:06.294Z,0.40
2022-08-22T16:47:33.661Z,0.40
2022-08-22T16:50:06.208Z,0.47
2022-08-22T16:52:51.968Z,0.80
2022-08-22T16:55:30.953Z,0.77
2022-08-22T16:58:11.965Z,0.70
2022-08-22T17:01:14.619Z,0.60
2022-08-22T17:03:47.516Z,0.68
2022-08-22T17:06:23.951Z,0.63
2022-08-22T17:09:27.788Z,0.63
2022-08-22T17:12:42.624Z,0.80
2022-08-22T17:15:28.515Z,0.85
2022-08-22T17:18:13.531Z,0.60
2022-08-22T17:21:01.492Z,0.75
2022-08-22T17:23:51.504Z,0.50
2022-08-22T17:26:45.004Z,0.50
2022-08-22T17:29:41.894Z,0.75
2022-08-22T17:32:59.079Z,0.60
2022-08-22T17:35:45.296Z,0.90
2022-08-22T17:38:40.881Z,0.50
2022-08-22T17:41:39.528Z,0.60
2022-08-22T17:44:21.584Z,0.40
2022-08-22T17:47:15.053Z,0.68
2022-08-22T17:49:41.722Z,0.40
2022-08-22T17:52:27.888Z,0.40
2022-08-22T17:55:05.691Z,0.88
2022-08-22T17:57:52.357Z,0.40
2022-08-22T18:00:33.344Z,0.60
2022-08-22T18:03:22.234Z,0.57
2022-08-22T18:05:53.493Z,0.50
2022-08-22T18:11:51.248Z,0.60
2022-08-22T18:14:49.028Z,0.40
2022-08-22T18:17:35.451Z,0.50
2022-08-22T18:20:43.119Z,0.32
2022-08-22T18:23:36.136Z,0.30
2022-08-22T18:26:20.801Z,0.50
2022-08-22T18:28:54.429Z,0.40
2022-08-22T18:31:29.096Z,0.50
2022-08-22T18:34:03.014Z,0.60
2022-08-22T18:36:34.777Z,0.30
2022-08-22T18:39:14.115Z,0.60
2022-08-22T18:41:40.756Z,1.08
2022-08-22T18:44:17.968Z,0.45
2022-08-22T18:46:51.696Z,0.40
2022-08-22T18:49:19.621Z,0.50
2022-08-22T18:52:08.534Z,0.45
2022-08-22T18:54:41.005Z,0.40
2022-08-22T18:57:24.346Z,0.70
2022-08-22T19:00:20.765Z,0.38
2022-08-22T19:03:03.636Z,0.38
2022-08-22T19:05:42.155Z,0.40
2022-08-22T19:08:37.073Z,0.40
2022-08-22T19:11:36.451Z,0.40
2022-08-22T19:14:40.707Z,0.40
2022-08-22T19:17:39.249Z,0.30
2022-08-22T19:20:50.923Z,0.40
2022-08-22T19:23:46.828Z,0.30
2022-08-22T19:26:26.042Z,0.40
2022-08-22T19:29:24.970Z,0.35
2022-08-22T19:32:02.070Z,0.50
2022-08-22T19:34:33.187Z,0.70
2022-08-22T19:37:33.722Z,0.50
2022-08-22T19:40:07.487Z,0.40
2022-08-22T19:42:38.174Z,0.40
2022-08-22T19:45:28.793Z,0.30
2022-08-22T19:48:00.473Z,0.20
2022-08-22T19:50:34.970Z,0.60
2022-08-22T19:53:18.450Z,0.50
2022-08-22T19:56:16.897Z,0.50
2022-08-22T19:58:51.875Z,0.70
2022-08-22T20:01:40.843Z,0.47
2022-08-22T20:04:45.263Z,0.30
2022-08-22T20:07:45.578Z,0.30
2022-08-22T20:10:48.497Z,0.40
2022-08-22T20:13:28.097Z,0.30
2022-08-22T20:16:13.480Z,0.60
2022-08-22T20:19:05.183Z,0.40
2022-08-22T20:22:00.095Z,0.40
2022-08-22T20:24:32.884Z,0.68
2022-08-22T20:27:15.119Z,0.63
2022-08-22T20:29:47.270Z,0.52
2022-08-22T20:32:18.065Z,0.40
2022-08-22T20:34:46.595Z,0.60
2022-08-22T20:37:35.545Z,0.43
2022-08-22T20:40:03.665Z,0.60
2022-08-22T20:42:35.181Z,0.70
2022-08-22T20:45:12.169Z,0.52
2022-08-22T20:47:41.126Z,0.80
2022-08-22T20:50:12.717Z,0.60
2022-08-22T20:52:51.890Z,0.60
2022-08-22T20:55:31.689Z,0.40
2022-08-22T20:58:04.361Z,0.40
2022-08-22T21:00:45.462Z,0.60
2022-08-22T21:03:14.861Z,0.40
2022-08-22T21:05:44.685Z,0.30
2022-08-22T21:08:20.037Z,0.32
2022-08-22T21:11:15.800Z,0.30
2022-08-22T21:13:42.531Z,0.30
2022-08-22T21:16:15.567Z,0.25
2022-08-22T21:18:48.796Z,0.30
2022-08-22T21:21:33.986Z,0.30
2022-08-22T21:24:05.953Z,0.30
2022-08-22T21:26:40.543Z,0.43
2022-08-22T21:29:13.481Z,0.30
2022-08-22T21:32:09.613Z,0.60
2022-08-22T21:34:49.053Z,0.45
2022-08-22T21:37:17.868Z,0.40
2022-08-22T21:39:49.838Z,0.22
2022-08-22T21:42:38.075Z,0.30
2022-08-22T21:45:09.926Z,0.40
2022-08-22T21:47:42.400Z,0.30
2022-08-22T21:50:23.418Z,0.30
2022-08-22T21:52:56.350Z,0.38
2022-08-22T21:55:34.820Z,0.28
2022-08-22T21:58:36.742Z,0.22
2022-08-22T22:01:28.060Z,0.30
2022-08-22T22:03:56.610Z,0.40
2022-08-22T22:06:23.341Z,0.38
2022-08-22T22:08:50.120Z,0.20
2022-08-22T22:11:17.424Z,0.32
2022-08-22T22:13:45.452Z,0.30
2022-08-22T22:16:12.614Z,0.32
2022-08-22T22:18:40.631Z,0.32
2022-08-22T22:21:08.110Z,0.22
2022-08-22T22:23:34.976Z,0.20
2022-08-22T22:26:04.039Z,0.20
2022-08-22T22:28:38.047Z,0.30
2022-08-22T22:31:05.356Z,0.30
2022-08-22T22:33:38.016Z,0.20
2022-08-22T22:36:09.070Z,0.20
2022-08-22T22:38:37.849Z,0.10
2022-08-22T22:41:04.766Z,0.20
2022-08-22T22:43:31.596Z,0.10
2022-08-22T22:45:59.075Z,0.20
2022-08-22T22:48:25.855Z,0.20
2022-08-22T22:50:53.382Z,0.15
2022-08-22T22:53:21.534Z,0.08
2022-08-22T22:56:00.731Z,0.10
2022-08-22T22:58:28.710Z,0.20
2022-08-22T23:00:56.401Z,0.10
2022-08-22T23:03:23.423Z,0.20
2022-08-22T23:05:50.161Z,0.20
2022-08-22T23:08:16.940Z,0.10
2022-08-22T23:10:43.748Z,0.10
2022-08-22T23:13:10.505Z,0.20
2022-08-22T23:15:37.378Z,0.20
2022-08-22T23:18:04.399Z,0.20
2022-08-22T23:20:31.160Z,0.10
2022-08-22T23:22:59.591Z,0.20
2022-08-22T23:25:26.770Z,0.20
2022-08-22T23:27:53.584Z,0.30
2022-08-22T23:30:21.976Z,0.30
2022-08-22T23:32:48.753Z,0.30
2022-08-22T23:35:15.639Z,0.10
2022-08-22T23:37:42.300Z,0.20
2022-08-22T23:40:10.324Z,0.30
2022-08-22T23:42:37.211Z,0.20
2022-08-22T23:45:04.404Z,0.20
2022-08-22T23:47:31.141Z,0.13
2022-08-22T23:49:57.941Z,0.30
2022-08-22T23:52:25.888Z,0.17
2022-08-22T23:54:55.710Z,0.20
2022-08-22T23:57:26.578Z,0.20
2022-08-22T23:59:58.533Z,0.30
